マニラ/ニノイ・アキノ の空港の天気 - METARとTAF

ニノイ・アキノ国際空港 ( RPLL / MNL ) - フィリピン マニラ
飛行場実況気象(Metar)
観測時間10/22 19:00 PHT (10/22 11:00 UTC)
風向・風速南西 4m/s
視程10km以上
天気現象
全天の4割程度の雲 雲底高度 700m
全天の8割程度の雲 雲底高度 2740m
気温29℃
湿度79%
気圧1006hPa
METARRPLL 221100Z 23007KT 9999 SCT023 BKN090 29/25 Q1006 NOSIG RMK A2971
過去の天気等 Google飛行場航空写真 Wunderground天気予報

過去48時間のMETAR

飛行場予報(TAF)
発表時間: 10/22 19:00 PHT (10/22 11:00 UTC)
予報対象時間: 22日20時 PHT ~ 24日2時 PHT
風向・風速西南西 3m/s
視程10km以上
全天の4割程度の雲 雲底高度 760m
全天の8割程度の雲 雲底高度 3050m
22日20時 PHT ~ 23日2時 PHT に一時的に
風向・風速南南西 2m/s
天気現象弱い雨
全天の4割程度の雲 雲底高度 700m
全天の8割程度の雲 雲底高度 3050m
23日2時 PHT ~ 23日8時 PHT に一時的に
風向・風速南東 2m/s
全天の4割程度の雲 雲底高度 700m
全天を覆う雲 雲底高度 3050m
TAF RPLL 221100Z 2212/2318 24006KT 9999 SCT025 BKN100 TX33/2306Z TN26/2221Z
TEMPO 2212/2218 21004KT -RA SCT023 BKN100
TEMPO 2218/2224 14004KT SCT023 OVC100